Time;durP1;ratioP1;P1;durP2;ratioP2;P2;SDS_P1;SDS_P2;PMS_P1;PMS_P2;Temp;Humidity;BMP_temperature;BMP_pressure;BME280_temperature;BME280_humidity;BME280_pressure;Samples;Min_cycle;Max_cycle;Signal;HPM_P1;HPM_P2
2022/04/03 00:00:58;;;;;;;12.07;10.30;;;;;;;;;;5006197;28;20411;-36
2022/04/03 00:03:25;;;;;;;16.60;10.07;;;;;;;;;;5006399;28;20406;-36
2022/04/03 00:05:51;;;;;;;15.80;10.20;;;;;;;;;;5008220;28;20421;-36
2022/04/03 00:08:17;;;;;;;14.27;10.23;;;;;;;;;;5009707;28;20438;-36
2022/04/03 00:10:45;;;;;;;14.00;10.23;;;;;;;;;;5007549;28;20492;-36
2022/04/03 00:13:11;;;;;;;13.77;9.37;;;;;;;;;;5006139;28;21088;-36
2022/04/03 00:15:41;;;;;;;13.10;9.57;;;;;;;;;;5006823;28;21094;-36
2022/04/03 00:18:08;;;;;;;13.90;10.63;;;;;;;;;;5003862;28;20839;-36
2022/04/03 00:20:36;;;;;;;14.90;10.30;;;;;;;;;;5005423;28;20422;-36
2022/04/03 00:23:02;;;;;;;16.03;10.73;;;;;;;;;;5006320;28;20449;-36
2022/04/03 00:25:28;;;;;;;16.00;10.57;;;;;;;;;;5009718;28;20418;-36
2022/04/03 00:27:54;;;;;;;13.73;9.87;;;;;;;;;;5004643;28;20958;-36
2022/04/03 00:30:20;;;;;;;14.43;10.40;;;;;;;;;;5005605;28;20847;-36
2022/04/03 00:32:46;;;;;;;13.70;9.43;;;;;;;;;;5008852;28;21288;-36
2022/04/03 00:35:12;;;;;;;13.57;9.67;;;;;;;;;;5008730;28;20446;-36
2022/04/03 00:37:38;;;;;;;14.27;10.00;;;;;;;;;;5005482;28;20702;-36
2022/04/03 00:40:05;;;;;;;12.43;8.63;;;;;;;;;;5000461;28;20433;-36
2022/04/03 00:42:34;;;;;;;13.90;9.00;;;;;;;;;;5004915;28;21252;-36
2022/04/03 00:45:00;;;;;;;12.10;8.43;;;;;;;;;;4998585;28;21005;-36
2022/04/03 00:47:27;;;;;;;13.40;9.40;;;;;;;;;;5001083;28;20719;-36
2022/04/03 00:49:53;;;;;;;12.60;8.80;;;;;;;;;;5001984;28;20673;-36
2022/04/03 00:52:20;;;;;;;11.93;9.63;;;;;;;;;;5004679;28;20426;-36
2022/04/03 00:54:47;;;;;;;11.57;7.60;;;;;;;;;;5005958;28;20454;-36
2022/04/03 00:57:13;;;;;;;9.30;8.00;;;;;;;;;;5004727;28;20430;-36
2022/04/03 00:59:41;;;;;;;16.07;8.77;;;;;;;;;;5004108;28;20445;-36
2022/04/03 01:02:07;;;;;;;16.13;10.13;;;;;;;;;;5007948;28;20732;-36
2022/04/03 01:04:33;;;;;;;12.23;9.23;;;;;;;;;;5007523;28;20957;-36
2022/04/03 01:06:59;;;;;;;13.00;9.80;;;;;;;;;;5007911;28;20847;-36
2022/04/03 01:09:25;;;;;;;13.53;10.27;;;;;;;;;;5003959;28;21359;-36
2022/04/03 01:11:51;;;;;;;14.13;10.10;;;;;;;;;;5005970;28;20869;-36
2022/04/03 01:14:50;;;;;;;14.13;9.90;;;;;;;;;;5007692;28;20414;-36
2022/04/03 01:17:16;;;;;;;15.43;9.63;;;;;;;;;;4960403;28;20449;-36
2022/04/03 01:19:42;;;;;;;12.30;9.23;;;;;;;;;;5001223;28;20844;-36
2022/04/03 01:22:09;;;;;;;15.10;9.93;;;;;;;;;;5007101;28;20418;-36
2022/04/03 01:24:35;;;;;;;14.93;9.30;;;;;;;;;;5009215;28;20613;-36
2022/04/03 01:27:01;;;;;;;12.37;8.87;;;;;;;;;;5005776;28;20415;-36
2022/04/03 01:29:27;;;;;;;11.03;8.87;;;;;;;;;;5004911;28;20533;-36
2022/04/03 01:31:54;;;;;;;11.93;8.53;;;;;;;;;;5007742;28;20827;-36
2022/04/03 01:34:22;;;;;;;10.90;7.70;;;;;;;;;;5003110;28;20475;-36
2022/04/03 01:36:48;;;;;;;12.60;8.73;;;;;;;;;;5000001;28;20466;-36
2022/04/03 01:39:15;;;;;;;12.23;8.20;;;;;;;;;;5002992;28;20936;-36
2022/04/03 01:41:42;;;;;;;12.87;8.43;;;;;;;;;;5006385;28;20546;-36
2022/04/03 01:44:08;;;;;;;10.23;8.80;;;;;;;;;;5004780;28;20434;-36
2022/04/03 01:46:35;;;;;;;10.93;8.47;;;;;;;;;;5000980;28;20562;-36
2022/04/03 01:49:01;;;;;;;11.23;9.03;;;;;;;;;;5009008;28;20468;-36
2022/04/03 01:51:27;;;;;;;13.13;9.00;;;;;;;;;;5007714;28;20429;-36
2022/04/03 01:53:54;;;;;;;11.87;9.40;;;;;;;;;;5005332;28;20911;-36
2022/04/03 01:56:20;;;;;;;12.03;9.00;;;;;;;;;;5000933;28;20454;-36
2022/04/03 01:58:46;;;;;;;17.27;10.67;;;;;;;;;;5004786;28;21266;-36
2022/04/03 02:01:12;;;;;;;14.53;10.00;;;;;;;;;;5003892;28;20965;-36
2022/04/03 02:03:38;;;;;;;14.43;10.57;;;;;;;;;;5006614;28;20606;-36
2022/04/03 02:06:04;;;;;;;10.33;8.97;;;;;;;;;;5001834;28;20432;-36
2022/04/03 02:08:30;;;;;;;13.60;9.90;;;;;;;;;;4999900;28;20454;-36
2022/04/03 02:10:57;;;;;;;15.20;10.93;;;;;;;;;;4999748;28;20674;-35
2022/04/03 02:13:23;;;;;;;13.80;10.10;;;;;;;;;;5006183;28;20637;-36
2022/04/03 02:15:49;;;;;;;14.27;11.20;;;;;;;;;;5001313;28;21110;-36
2022/04/03 02:18:15;;;;;;;12.67;9.40;;;;;;;;;;5000943;28;20827;-36
2022/04/03 02:20:41;;;;;;;14.37;11.63;;;;;;;;;;5005492;28;20422;-35
2022/04/03 02:23:07;;;;;;;15.73;10.90;;;;;;;;;;5006844;28;21024;-36
2022/04/03 02:25:33;;;;;;;13.83;10.53;;;;;;;;;;5003147;28;20488;-36
2022/04/03 02:27:59;;;;;;;15.40;11.03;;;;;;;;;;5002789;28;20445;-36
2022/04/03 02:30:26;;;;;;;13.67;10.40;;;;;;;;;;5006455;28;20674;-36
2022/04/03 02:32:52;;;;;;;14.27;11.23;;;;;;;;;;5004081;28;20418;-36
2022/04/03 02:35:19;;;;;;;15.30;10.67;;;;;;;;;;5001522;28;20458;-36
2022/04/03 02:37:45;;;;;;;16.87;11.93;;;;;;;;;;5005061;28;20460;-36
2022/04/03 02:40:13;;;;;;;17.10;12.03;;;;;;;;;;5007039;28;20986;-36
2022/04/03 02:42:40;;;;;;;14.87;10.83;;;;;;;;;;5002780;28;20539;-36
2022/04/03 02:45:06;;;;;;;15.73;11.50;;;;;;;;;;5002910;28;20822;-36
2022/04/03 02:47:33;;;;;;;15.23;11.57;;;;;;;;;;5004997;28;20657;-35
2022/04/03 02:49:59;;;;;;;16.67;12.53;;;;;;;;;;5005462;28;20797;-35
2022/04/03 02:52:25;;;;;;;18.23;12.37;;;;;;;;;;5002699;28;20465;-34
2022/04/03 02:54:51;;;;;;;17.67;12.97;;;;;;;;;;5005724;28;20461;-33
2022/04/03 02:57:18;;;;;;;18.10;13.70;;;;;;;;;;5005417;28;20971;-42
2022/04/03 02:59:45;;;;;;;18.00;15.30;;;;;;;;;;5003918;28;20785;-41
2022/04/03 03:02:11;;;;;;;18.70;14.03;;;;;;;;;;5003073;28;20503;-40
2022/04/03 03:04:37;;;;;;;17.63;14.30;;;;;;;;;;5006076;28;20541;-41
2022/04/03 03:07:05;;;;;;;17.93;13.03;;;;;;;;;;5004759;28;21014;-41
2022/04/03 03:09:31;;;;;;;20.47;15.37;;;;;;;;;;5006569;28;20450;-41
2022/04/03 03:12:00;;;;;;;18.30;13.93;;;;;;;;;;5008687;28;21051;-42
2022/04/03 03:14:26;;;;;;;22.27;16.23;;;;;;;;;;5009005;28;20550;-41
2022/04/03 03:16:53;;;;;;;19.67;14.60;;;;;;;;;;5007063;28;20505;-40
2022/04/03 03:19:19;;;;;;;17.10;14.23;;;;;;;;;;5006308;28;20423;-40
2022/04/03 03:21:45;;;;;;;18.73;14.73;;;;;;;;;;5011550;28;20409;-41
2022/04/03 03:24:11;;;;;;;17.63;13.80;;;;;;;;;;5007565;28;20418;-41
2022/04/03 03:26:38;;;;;;;19.73;14.93;;;;;;;;;;5005018;28;20415;-41
2022/04/03 03:29:04;;;;;;;19.97;15.23;;;;;;;;;;5008681;28;20414;-41
2022/04/03 03:31:31;;;;;;;21.23;15.90;;;;;;;;;;5008168;28;20430;-42
2022/04/03 03:33:57;;;;;;;19.60;15.43;;;;;;;;;;5007109;28;20419;-41
2022/04/03 03:36:23;;;;;;;18.37;14.37;;;;;;;;;;5002403;28;22414;-41
2022/04/03 03:38:49;;;;;;;18.63;14.53;;;;;;;;;;5005532;28;20866;-42
2022/04/03 03:41:15;;;;;;;17.87;13.50;;;;;;;;;;5006085;28;21090;-41
2022/04/03 03:43:41;;;;;;;18.53;14.67;;;;;;;;;;5007670;28;20422;-42
2022/04/03 03:46:11;;;;;;;19.70;16.17;;;;;;;;;;5007184;28;20838;-41
2022/04/03 03:48:37;;;;;;;22.60;14.87;;;;;;;;;;5008837;28;20728;-40
2022/04/03 03:51:03;;;;;;;21.10;16.57;;;;;;;;;;5006242;28;20425;-42
2022/04/03 03:53:30;;;;;;;19.33;14.50;;;;;;;;;;5007650;28;20878;-42
2022/04/03 03:55:56;;;;;;;21.57;15.70;;;;;;;;;;5008843;28;20472;-41
2022/04/03 03:58:22;;;;;;;19.57;15.30;;;;;;;;;;5006303;28;20453;-42
2022/04/03 04:00:48;;;;;;;17.80;14.50;;;;;;;;;;5003663;28;20965;-40
2022/04/03 04:03:14;;;;;;;17.90;14.87;;;;;;;;;;5007337;28;20430;-40
2022/04/03 04:05:41;;;;;;;19.57;15.50;;;;;;;;;;5007178;28;20426;-42
2022/04/03 04:08:08;;;;;;;20.13;15.53;;;;;;;;;;5005224;28;21004;-42
2022/04/03 04:10:34;;;;;;;20.00;15.20;;;;;;;;;;5005693;28;20419;-42
2022/04/03 04:13:00;;;;;;;21.60;15.53;;;;;;;;;;5008670;28;20407;-40
2022/04/03 04:15:27;;;;;;;18.97;15.30;;;;;;;;;;5004076;28;20454;-41
2022/04/03 04:17:54;;;;;;;21.07;16.07;;;;;;;;;;5003154;28;20873;-41
2022/04/03 04:20:21;;;;;;;21.10;14.70;;;;;;;;;;5003030;28;20941;-42
2022/04/03 04:22:48;;;;;;;16.40;13.83;;;;;;;;;;5009088;28;20489;-42
2022/04/03 04:25:14;;;;;;;20.67;14.77;;;;;;;;;;5007003;28;20429;-41
2022/04/03 04:27:41;;;;;;;19.50;14.00;;;;;;;;;;5005896;28;20446;-42
2022/04/03 04:30:07;;;;;;;19.67;14.77;;;;;;;;;;5002735;28;21149;-42
2022/04/03 04:32:34;;;;;;;19.20;14.53;;;;;;;;;;5005849;28;20446;-42
2022/04/03 04:35:00;;;;;;;17.50;13.93;;;;;;;;;;5009376;28;20545;-42
2022/04/03 04:37:26;;;;;;;20.43;15.87;;;;;;;;;;5006649;28;20480;-41
2022/04/03 04:39:53;;;;;;;19.50;15.13;;;;;;;;;;5004762;28;20851;-42
2022/04/03 04:42:20;;;;;;;20.97;16.20;;;;;;;;;;5006359;28;20781;-42
2022/04/03 04:44:47;;;;;;;22.07;17.23;;;;;;;;;;5007590;28;20438;-42
2022/04/03 04:47:13;;;;;;;22.13;17.60;;;;;;;;;;5006715;28;20918;-42
2022/04/03 04:49:39;;;;;;;17.97;15.67;;;;;;;;;;5003782;28;20997;-42
2022/04/03 04:52:05;;;;;;;22.53;16.40;;;;;;;;;;5005913;28;20426;-43
2022/04/03 04:54:31;;;;;;;18.67;15.23;;;;;;;;;;5005703;28;20968;-42
2022/04/03 04:56:58;;;;;;;22.80;17.10;;;;;;;;;;5003727;28;20426;-42
2022/04/03 04:59:24;;;;;;;17.50;14.73;;;;;;;;;;5004674;28;20966;-42
2022/04/03 05:01:50;;;;;;;21.17;15.43;;;;;;;;;;5008547;28;20437;-41
2022/04/03 05:04:16;;;;;;;17.93;14.50;;;;;;;;;;5003974;28;20422;-41
2022/04/03 05:06:42;;;;;;;18.13;13.27;;;;;;;;;;5015948;28;20955;-41
2022/04/03 05:09:09;;;;;;;18.67;13.30;;;;;;;;;;5006433;28;20777;-39
2022/04/03 05:11:37;;;;;;;18.20;14.90;;;;;;;;;;5005858;28;21510;-41
2022/04/03 05:14:04;;;;;;;19.63;14.30;;;;;;;;;;5005272;28;20538;-41
2022/04/03 05:16:30;;;;;;;17.30;14.60;;;;;;;;;;5007665;28;20442;-41
2022/04/03 05:18:56;;;;;;;20.40;16.63;;;;;;;;;;5006146;28;20920;-40
2022/04/03 05:21:23;;;;;;;18.63;14.40;;;;;;;;;;5002800;28;20755;-41
2022/04/03 05:23:49;;;;;;;29.93;20.67;;;;;;;;;;4986191;28;20717;-41
2022/04/03 05:26:17;;;;;;;22.37;18.13;;;;;;;;;;5006856;28;20870;-41
2022/04/03 05:28:43;;;;;;;27.27;18.93;;;;;;;;;;5002427;28;20481;-40
2022/04/03 05:31:10;;;;;;;24.03;19.10;;;;;;;;;;5000639;28;20477;-41
2022/04/03 05:33:36;;;;;;;29.57;20.37;;;;;;;;;;5005964;28;20434;-40
2022/04/03 05:36:03;;;;;;;26.43;18.50;;;;;;;;;;5009069;28;20600;-40
2022/04/03 05:38:30;;;;;;;23.87;18.73;;;;;;;;;;5007776;28;20712;-40
2022/04/03 05:40:56;;;;;;;22.43;18.47;;;;;;;;;;5002659;28;20489;-42
2022/04/03 05:43:22;;;;;;;25.17;19.13;;;;;;;;;;5006409;28;20444;-41
2022/04/03 05:45:48;;;;;;;24.87;18.87;;;;;;;;;;5007023;28;20526;-41
2022/04/03 05:48:14;;;;;;;25.27;17.97;;;;;;;;;;5004352;28;20426;-42
2022/04/03 05:50:41;;;;;;;19.17;16.23;;;;;;;;;;5004354;28;21013;-42
2022/04/03 05:53:07;;;;;;;25.47;19.30;;;;;;;;;;5004822;28;20434;-42
2022/04/03 05:55:33;;;;;;;26.53;19.77;;;;;;;;;;5007110;28;20450;-42
2022/04/03 05:58:00;;;;;;;24.30;19.87;;;;;;;;;;4986823;28;20415;-42
2022/04/03 06:00:26;;;;;;;23.90;19.13;;;;;;;;;;5001202;28;20887;-42
2022/04/03 06:02:56;;;;;;;18.40;14.97;;;;;;;;;;4986460;28;20476;-42
2022/04/03 06:05:24;;;;;;;26.00;19.80;;;;;;;;;;5004001;28;21242;-40
2022/04/03 06:07:50;;;;;;;23.00;18.77;;;;;;;;;;5003323;28;20441;-42
2022/04/03 06:10:16;;;;;;;21.27;17.10;;;;;;;;;;5005442;28;20427;-42
2022/04/03 06:13:00;;;;;;;21.63;17.67;;;;;;;;;;5004264;28;20430;-42
2022/04/03 06:15:37;;;;;;;25.90;19.23;;;;;;;;;;5000614;28;20445;-42
2022/04/03 06:18:05;;;;;;;23.13;18.43;;;;;;;;;;5003540;28;20495;-42
2022/04/03 06:20:31;;;;;;;25.10;18.93;;;;;;;;;;5001492;28;20500;-42
2022/04/03 06:22:57;;;;;;;24.43;18.27;;;;;;;;;;5001637;28;20452;-42
2022/04/03 06:25:23;;;;;;;22.63;17.17;;;;;;;;;;5005734;28;20441;-42
2022/04/03 06:27:50;;;;;;;19.83;14.67;;;;;;;;;;5003784;28;20931;-43
2022/04/03 06:30:16;;;;;;;22.83;18.13;;;;;;;;;;5001946;28;20414;-43
2022/04/03 06:32:42;;;;;;;20.43;16.13;;;;;;;;;;5003545;28;21033;-43
2022/04/03 06:35:08;;;;;;;21.83;15.83;;;;;;;;;;5004693;28;20751;-43
2022/04/03 06:37:35;;;;;;;20.50;15.20;;;;;;;;;;5005654;28;20445;-42
2022/04/03 06:40:02;;;;;;;21.03;16.47;;;;;;;;;;5007615;28;20410;-42
2022/04/03 06:42:29;;;;;;;25.30;16.87;;;;;;;;;;5004389;28;20459;-42
2022/04/03 06:44:55;;;;;;;19.40;15.17;;;;;;;;;;5005408;28;20843;-42
2022/04/03 06:47:21;;;;;;;22.50;15.90;;;;;;;;;;5005467;28;20413;-43
2022/04/03 06:49:47;;;;;;;21.07;14.77;;;;;;;;;;5005784;28;20453;-43
2022/04/03 06:52:13;;;;;;;17.37;13.40;;;;;;;;;;5011936;28;21722;-42
2022/04/03 06:54:39;;;;;;;15.50;11.97;;;;;;;;;;5008524;28;21100;-43
2022/04/03 06:57:06;;;;;;;16.53;12.33;;;;;;;;;;5009485;28;20425;-42
2022/04/03 06:59:32;;;;;;;19.87;12.70;;;;;;;;;;5008954;28;20485;-43
2022/04/03 07:01:58;;;;;;;16.43;12.40;;;;;;;;;;5005549;28;20950;-43
2022/04/03 07:04:24;;;;;;;17.03;12.77;;;;;;;;;;5001909;28;20422;-43
2022/04/03 07:06:50;;;;;;;16.83;12.20;;;;;;;;;;5006050;28;20414;-43
2022/04/03 07:09:17;;;;;;;15.83;11.40;;;;;;;;;;5003628;28;20430;-43
2022/04/03 07:11:43;;;;;;;15.77;11.80;;;;;;;;;;5006104;28;20410;-43
2022/04/03 07:14:09;;;;;;;14.13;10.83;;;;;;;;;;5004544;28;20425;-43
2022/04/03 07:16:35;;;;;;;13.93;11.67;;;;;;;;;;5008420;28;20446;-43
2022/04/03 07:19:01;;;;;;;18.83;12.03;;;;;;;;;;5005280;28;20820;-43
2022/04/03 07:21:27;;;;;;;14.23;10.53;;;;;;;;;;5005306;28;20894;-44
2022/04/03 07:23:53;;;;;;;14.40;11.83;;;;;;;;;;5005139;28;20998;-43
2022/04/03 07:26:19;;;;;;;16.73;14.20;;;;;;;;;;5003030;28;20426;-44
2022/04/03 07:28:45;;;;;;;16.47;12.83;;;;;;;;;;5008862;28;20433;-44
2022/04/03 07:31:11;;;;;;;17.93;13.77;;;;;;;;;;5005878;28;20627;-43
2022/04/03 07:33:37;;;;;;;14.00;9.10;;;;;;;;;;5003762;28;20509;-43
2022/04/03 07:36:04;;;;;;;11.40;8.67;;;;;;;;;;4998103;28;21077;-44
2022/04/03 07:38:30;;;;;;;10.07;8.90;;;;;;;;;;5001760;28;20422;-43
2022/04/03 07:40:56;;;;;;;15.33;10.97;;;;;;;;;;4987756;28;20457;-43
2022/04/03 07:43:23;;;;;;;14.27;10.97;;;;;;;;;;5003420;28;20427;-43
2022/04/03 07:45:49;;;;;;;13.47;10.17;;;;;;;;;;5001525;28;20422;-44
2022/04/03 07:48:19;;;;;;;12.13;10.27;;;;;;;;;;4998287;28;20816;-42
2022/04/03 07:50:45;;;;;;;15.37;11.20;;;;;;;;;;5001537;28;21331;-44
2022/04/03 07:53:12;;;;;;;14.27;11.60;;;;;;;;;;5005397;28;20849;-44
2022/04/03 07:55:38;;;;;;;12.83;10.33;;;;;;;;;;4998743;28;20692;-44
2022/04/03 07:58:06;;;;;;;13.23;9.33;;;;;;;;;;5003744;28;20874;-44
2022/04/03 08:00:33;;;;;;;9.70;8.27;;;;;;;;;;5016402;28;20457;-44
2022/04/03 08:02:59;;;;;;;8.63;7.80;;;;;;;;;;5009795;28;20735;-44
2022/04/03 08:05:25;;;;;;;15.73;10.07;;;;;;;;;;5010507;28;20969;-44
2022/04/03 08:07:51;;;;;;;14.53;9.97;;;;;;;;;;4999286;28;20642;-44
2022/04/03 08:10:19;;;;;;;13.57;10.63;;;;;;;;;;5007034;28;20435;-44
2022/04/03 08:12:46;;;;;;;12.67;10.47;;;;;;;;;;5006515;28;21071;-44
2022/04/03 08:15:12;;;;;;;15.67;10.87;;;;;;;;;;5002455;28;20899;-44
2022/04/03 08:17:39;;;;;;;12.93;9.50;;;;;;;;;;5002507;28;20427;-44
2022/04/03 08:20:06;;;;;;;12.90;10.17;;;;;;;;;;5002875;28;20477;-44
2022/04/03 08:22:33;;;;;;;11.43;10.13;;;;;;;;;;5007113;28;20419;-44
2022/04/03 08:24:59;;;;;;;13.27;9.77;;;;;;;;;;5006028;28;20285;-44
2022/04/03 08:27:25;;;;;;;13.20;9.53;;;;;;;;;;5003011;28;20828;-44
2022/04/03 08:29:51;;;;;;;9.63;8.57;;;;;;;;;;5008351;28;20336;-45
2022/04/03 08:32:17;;;;;;;11.83;8.27;;;;;;;;;;5005348;28;20184;-45
2022/04/03 08:34:43;;;;;;;10.97;8.50;;;;;;;;;;5004204;28;20541;-44
2022/04/03 08:37:09;;;;;;;11.57;9.30;;;;;;;;;;5004826;28;20182;-45
2022/04/03 08:39:35;;;;;;;9.97;7.80;;;;;;;;;;5006496;28;20252;-45
2022/04/03 08:42:02;;;;;;;9.57;8.47;;;;;;;;;;5009521;28;20179;-45
2022/04/03 08:44:29;;;;;;;12.43;8.30;;;;;;;;;;5005890;28;20186;-45
2022/04/03 08:46:59;;;;;;;12.57;9.30;;;;;;;;;;5001706;28;20183;-45
2022/04/03 08:49:27;;;;;;;11.13;8.87;;;;;;;;;;4999762;28;20187;-45
2022/04/03 08:51:54;;;;;;;10.73;8.60;;;;;;;;;;5006167;28;20407;-45
2022/04/03 08:54:21;;;;;;;12.03;9.23;;;;;;;;;;5006100;28;20164;-45
2022/04/03 08:56:47;;;;;;;12.43;9.07;;;;;;;;;;5000654;28;21061;-45
2022/04/03 08:59:13;;;;;;;13.63;9.47;;;;;;;;;;5006450;28;20544;-45
2022/04/03 09:01:39;;;;;;;10.83;9.20;;;;;;;;;;5008764;28;20403;-45
2022/04/03 09:04:05;;;;;;;8.67;7.77;;;;;;;;;;5002412;28;20525;-45
2022/04/03 09:06:32;;;;;;;10.63;7.50;;;;;;;;;;5002365;28;20508;-45
2022/04/03 09:08:58;;;;;;;14.33;8.57;;;;;;;;;;5003603;28;20457;-45
2022/04/03 09:11:28;;;;;;;11.70;8.33;;;;;;;;;;5006946;28;20176;-45
2022/04/03 09:13:55;;;;;;;12.33;8.03;;;;;;;;;;4982358;28;20183;-45
2022/04/03 09:16:37;;;;;;;11.27;8.33;;;;;;;;;;5006864;28;20755;-47
2022/04/03 09:19:03;;;;;;;9.50;7.37;;;;;;;;;;5005983;28;20548;-46
2022/04/03 09:21:30;;;;;;;11.60;8.77;;;;;;;;;;5006008;28;20287;-46
2022/04/03 09:23:56;;;;;;;12.43;7.90;;;;;;;;;;5008803;28;20239;-46
2022/04/03 09:26:22;;;;;;;10.10;7.93;;;;;;;;;;5007733;28;20338;-46
2022/04/03 09:28:48;;;;;;;9.80;8.17;;;;;;;;;;5007508;28;20638;-48
2022/04/03 09:31:33;;;;;;;12.37;8.20;;;;;;;;;;5005634;28;20199;-46
2022/04/03 09:34:00;;;;;;;11.30;8.13;;;;;;;;;;5009378;28;20727;-46
2022/04/03 09:36:29;;;;;;;12.00;8.67;;;;;;;;;;5007511;28;20313;-46
2022/04/03 09:39:04;;;;;;;10.53;8.73;;;;;;;;;;5006524;28;20300;-46
2022/04/03 09:41:31;;;;;;;11.33;9.17;;;;;;;;;;5008524;28;20156;-46
2022/04/03 09:43:57;;;;;;;9.90;7.57;;;;;;;;;;5009104;28;20487;-46
2022/04/03 09:46:29;;;;;;;11.67;7.33;;;;;;;;;;5006936;28;20186;-46
2022/04/03 09:48:56;;;;;;;8.93;7.47;;;;;;;;;;5006818;28;20168;-45
2022/04/03 09:51:22;;;;;;;10.53;7.43;;;;;;;;;;5003919;28;20258;-46
2022/04/03 09:54:02;;;;;;;10.33;6.90;;;;;;;;;;5005591;28;20583;-46
2022/04/03 09:56:31;;;;;;;7.93;5.77;;;;;;;;;;5007463;28;20325;-46
2022/04/03 09:58:58;;;;;;;8.83;5.87;;;;;;;;;;5007093;28;20257;-46
2022/04/03 10:01:34;;;;;;;9.20;6.23;;;;;;;;;;5006468;28;20612;-46
2022/04/03 10:04:01;;;;;;;10.30;6.70;;;;;;;;;;5005872;28;20164;-46
2022/04/03 10:06:28;;;;;;;8.60;5.83;;;;;;;;;;5005636;28;20184;-46
2022/04/03 10:08:54;;;;;;;4.50;2.67;;;;;;;;;;5005594;28;20342;-46
2022/04/03 10:11:21;;;;;;;6.50;3.10;;;;;;;;;;4998232;28;20268;-46
2022/04/03 10:13:47;;;;;;;4.80;2.77;;;;;;;;;;5001720;28;20180;-46
2022/04/03 10:16:14;;;;;;;7.90;2.90;;;;;;;;;;5003573;28;20204;-46
2022/04/03 10:18:41;;;;;;;3.77;2.33;;;;;;;;;;5001987;28;20588;-46
2022/04/03 10:21:14;;;;;;;5.07;2.30;;;;;;;;;;5006480;28;20437;-46
2022/04/03 10:23:41;;;;;;;3.97;2.30;;;;;;;;;;5006967;28;20194;-46
2022/04/03 10:26:08;;;;;;;3.73;2.20;;;;;;;;;;5007510;28;20180;-46
2022/04/03 10:28:35;;;;;;;4.13;2.10;;;;;;;;;;5002139;28;20171;-46
2022/04/03 10:31:07;;;;;;;5.63;2.20;;;;;;;;;;5001404;28;20866;-46
2022/04/03 10:33:37;;;;;;;4.53;2.20;;;;;;;;;;5007698;28;20172;-46
2022/04/03 10:36:05;;;;;;;3.80;2.10;;;;;;;;;;5004559;28;20192;-46
2022/04/03 10:39:00;;;;;;;5.27;2.50;;;;;;;;;;5005374;28;20253;-46
2022/04/03 10:41:28;;;;;;;3.03;1.90;;;;;;;;;;4989267;28;20579;-46
2022/04/03 10:44:18;;;;;;;6.10;2.80;;;;;;;;;;5003685;28;20881;-46
2022/04/03 10:47:02;;;;;;;3.27;2.20;;;;;;;;;;4986640;28;20806;-46
2022/04/03 10:49:32;;;;;;;7.03;2.70;;;;;;;;;;5003406;28;20239;-45
2022/04/03 10:52:08;;;;;;;5.93;2.17;;;;;;;;;;5004933;28;20183;-46
2022/04/03 10:54:50;;;;;;;3.73;2.10;;;;;;;;;;5003885;28;20597;-45
2022/04/03 10:57:35;;;;;;;3.33;1.97;;;;;;;;;;5002574;28;20446;-45
2022/04/03 11:00:11;;;;;;;2.97;2.20;;;;;;;;;;4999971;28;20542;-45
2022/04/03 11:02:37;;;;;;;4.80;2.63;;;;;;;;;;4998537;28;20188;-45
2022/04/03 11:05:21;;;;;;;3.77;2.37;;;;;;;;;;4999745;28;21055;-45
2022/04/03 11:07:48;;;;;;;5.77;2.50;;;;;;;;;;5001736;28;20635;-46
2022/04/03 11:10:14;;;;;;;4.60;2.47;;;;;;;;;;5002906;28;20723;-45
2022/04/03 11:12:44;;;;;;;4.33;2.23;;;;;;;;;;4983812;28;20216;-45
2022/04/03 11:15:13;;;;;;;2.87;1.90;;;;;;;;;;5003337;28;20743;-45
2022/04/03 11:17:45;;;;;;;3.80;1.93;;;;;;;;;;5005463;28;20557;-45
2022/04/03 11:20:28;;;;;;;2.90;2.10;;;;;;;;;;4993950;28;20778;-46
2022/04/03 11:22:54;;;;;;;3.80;1.60;;;;;;;;;;5000441;28;20719;-46
2022/04/03 11:25:21;;;;;;;3.37;2.00;;;;;;;;;;5004355;28;20440;-45
2022/04/03 11:27:47;;;;;;;3.57;2.10;;;;;;;;;;5001138;28;20457;-46
2022/04/03 11:30:13;;;;;;;4.80;2.20;;;;;;;;;;5007406;28;20234;-46
2022/04/03 11:32:40;;;;;;;4.40;2.00;;;;;;;;;;5000930;28;20273;-46
2022/04/03 11:35:06;;;;;;;2.87;2.33;;;;;;;;;;5005476;28;20254;-46
2022/04/03 11:37:33;;;;;;;3.63;2.37;;;;;;;;;;5005012;28;20424;-47
2022/04/03 11:40:06;;;;;;;2.93;2.10;;;;;;;;;;4996412;28;20188;-46
2022/04/03 11:42:32;;;;;;;3.03;2.10;;;;;;;;;;5005207;28;20172;-46
2022/04/03 11:44:58;;;;;;;4.50;2.50;;;;;;;;;;5002545;28;20516;-46
2022/04/03 11:47:25;;;;;;;3.73;2.30;;;;;;;;;;5005687;28;20505;-46
2022/04/03 11:50:04;;;;;;;4.60;2.10;;;;;;;;;;5004794;28;20180;-46
2022/04/03 11:52:30;;;;;;;5.30;2.33;;;;;;;;;;4986506;28;20261;-45
2022/04/03 11:54:57;;;;;;;4.57;2.57;;;;;;;;;;5006436;28;20747;-46
2022/04/03 11:57:23;;;;;;;3.93;2.50;;;;;;;;;;4987280;28;20580;-45
2022/04/03 11:59:53;;;;;;;3.10;2.33;;;;;;;;;;5005978;28;20180;-46
2022/04/03 12:02:20;;;;;;;4.70;2.20;;;;;;;;;;4986072;28;20183;-45
2022/04/03 12:04:46;;;;;;;4.77;2.00;;;;;;;;;;5008312;28;21188;-46
2022/04/03 12:07:14;;;;;;;4.03;2.20;;;;;;;;;;5002375;28;20191;-45
2022/04/03 12:09:43;;;;;;;4.20;2.10;;;;;;;;;;5007017;28;20274;-45
2022/04/03 12:12:10;;;;;;;4.80;2.33;;;;;;;;;;5010421;28;20404;-46
2022/04/03 12:14:40;;;;;;;2.00;1.80;;;;;;;;;;4982198;28;20180;-45
2022/04/03 12:17:07;;;;;;;3.97;2.23;;;;;;;;;;5004299;28;20469;-45
2022/04/03 12:19:37;;;;;;;2.77;2.10;;;;;;;;;;5006751;28;20289;-46
2022/04/03 12:22:04;;;;;;;2.83;1.80;;;;;;;;;;5004108;28;20603;-45
2022/04/03 12:24:34;;;;;;;2.27;1.73;;;;;;;;;;5008180;28;20251;-46
2022/04/03 12:27:06;;;;;;;3.93;2.30;;;;;;;;;;5006289;28;20721;-45
2022/04/03 12:29:35;;;;;;;3.13;2.30;;;;;;;;;;5011115;28;21127;-45
2022/04/03 12:32:01;;;;;;;5.80;2.33;;;;;;;;;;5007123;28;20187;-45
2022/04/03 12:34:29;;;;;;;4.83;2.33;;;;;;;;;;5007188;28;20184;-46
2022/04/03 12:36:59;;;;;;;5.07;2.30;;;;;;;;;;5005519;28;20552;-46
2022/04/03 12:39:34;;;;;;;4.57;2.70;;;;;;;;;;5006836;28;21247;-46
2022/04/03 12:42:13;;;;;;;5.90;3.03;;;;;;;;;;5008013;28;20228;-46
2022/04/03 12:44:45;;;;;;;4.23;2.37;;;;;;;;;;4992424;28;20270;-45
2022/04/03 12:47:12;;;;;;;3.10;2.20;;;;;;;;;;4999995;28;20283;-46
2022/04/03 12:49:40;;;;;;;4.63;2.00;;;;;;;;;;5005189;28;20187;-46
2022/04/03 12:52:06;;;;;;;3.27;2.23;;;;;;;;;;5007296;28;20229;-45
2022/04/03 12:54:45;;;;;;;3.53;2.23;;;;;;;;;;5007015;28;20700;-46
2022/04/03 13:00:18;;;;;;;4.03;2.23;;;;;;;;;;5006988;28;21099;-45
2022/04/03 13:02:50;;;;;;;4.77;2.27;;;;;;;;;;5008725;28;20420;-45
2022/04/03 13:05:17;;;;;;;3.10;2.07;;;;;;;;;;5008823;28;20192;-45
2022/04/03 13:07:43;;;;;;;2.80;2.40;;;;;;;;;;5006975;28;20340;-45
2022/04/03 13:10:16;;;;;;;4.10;2.50;;;;;;;;;;5009945;28;20263;-46
2022/04/03 13:12:45;;;;;;;2.87;2.50;;;;;;;;;;5004971;28;20181;-46
2022/04/03 13:15:11;;;;;;;5.50;2.50;;;;;;;;;;5005551;28;20192;-45
2022/04/03 13:17:37;;;;;;;3.60;2.70;;;;;;;;;;5005471;28;20180;-45
2022/04/03 13:20:04;;;;;;;3.20;2.70;;;;;;;;;;5009445;28;20537;-45
2022/04/03 13:22:30;;;;;;;3.10;2.60;;;;;;;;;;5005789;28;20559;-45
2022/04/03 13:24:56;;;;;;;4.40;3.17;;;;;;;;;;5006846;28;20244;-45
2022/04/03 13:27:23;;;;;;;4.43;3.10;;;;;;;;;;5004995;28;20550;-45
2022/04/03 13:29:49;;;;;;;4.40;2.70;;;;;;;;;;4992038;28;20438;-45
2022/04/03 13:32:19;;;;;;;4.17;3.17;;;;;;;;;;5004600;28;21085;-45
2022/04/03 13:34:45;;;;;;;4.90;3.30;;;;;;;;;;5007114;28;20173;-45
2022/04/03 13:37:11;;;;;;;5.23;3.23;;;;;;;;;;5005430;28;20210;-45
2022/04/03 13:39:37;;;;;;;3.57;3.10;;;;;;;;;;4990573;28;20176;-45
2022/04/03 13:42:08;;;;;;;6.73;3.20;;;;;;;;;;4999581;28;20730;-45
2022/04/03 13:44:34;;;;;;;6.03;3.40;;;;;;;;;;5003917;28;20455;-45
2022/04/03 13:47:00;;;;;;;6.13;3.30;;;;;;;;;;5006239;28;20188;-45
2022/04/03 13:49:26;;;;;;;4.93;3.40;;;;;;;;;;4988979;28;20192;-45
2022/04/03 13:51:52;;;;;;;6.73;3.63;;;;;;;;;;4994128;28;20175;-45
2022/04/03 13:54:18;;;;;;;6.07;3.30;;;;;;;;;;4990376;28;20467;-45
2022/04/03 13:56:44;;;;;;;4.60;3.30;;;;;;;;;;5000864;28;20215;-45
2022/04/03 13:59:11;;;;;;;4.30;3.30;;;;;;;;;;5003944;28;21060;-45
2022/04/03 14:01:37;;;;;;;6.03;3.60;;;;;;;;;;4998602;28;20172;-45
2022/04/03 14:04:04;;;;;;;5.30;3.50;;;;;;;;;;5005601;28;20581;-45
2022/04/03 14:06:31;;;;;;;4.63;3.50;;;;;;;;;;4985324;28;20267;-45
2022/04/03 14:08:57;;;;;;;5.27;3.33;;;;;;;;;;5001604;28;20266;-45
2022/04/03 14:11:23;;;;;;;6.10;3.60;;;;;;;;;;5003323;28;20290;-45
2022/04/03 14:13:49;;;;;;;4.13;3.63;;;;;;;;;;5002638;28;20663;-45
2022/04/03 14:16:15;;;;;;;6.27;3.50;;;;;;;;;;5000440;28;20274;-45
2022/04/03 14:18:41;;;;;;;6.10;3.70;;;;;;;;;;5000068;28;20266;-45
2022/04/03 14:21:08;;;;;;;3.63;3.30;;;;;;;;;;4998793;28;20684;-45
2022/04/03 14:23:36;;;;;;;4.93;3.20;;;;;;;;;;4998783;28;20172;-45
2022/04/03 14:26:03;;;;;;;6.13;3.37;;;;;;;;;;4994663;28;20175;-44
2022/04/03 14:28:30;;;;;;;7.20;3.20;;;;;;;;;;5003018;28;20185;-44
2022/04/03 14:30:56;;;;;;;4.00;2.90;;;;;;;;;;4999535;28;20184;-45
2022/04/03 14:33:22;;;;;;;4.33;3.10;;;;;;;;;;4997609;28;20172;-45